createdAt,value
2023-04-18T00:00:37.725Z,991.00
2023-04-18T00:01:37.791Z,982.00
2023-04-18T00:02:37.990Z,981.00
2023-04-18T00:03:38.144Z,992.00
2023-04-18T00:04:37.970Z,977.00
2023-04-18T00:05:37.964Z,980.00
2023-04-18T00:06:37.964Z,973.00
2023-04-18T00:07:38.034Z,973.00
2023-04-18T00:08:38.073Z,961.00
2023-04-18T00:09:38.157Z,967.00
2023-04-18T00:10:38.158Z,977.00
2023-04-18T00:11:38.190Z,971.00
2023-04-18T00:12:38.196Z,960.00
2023-04-18T00:13:38.238Z,966.00
2023-04-18T00:14:38.289Z,961.00
2023-04-18T00:15:38.330Z,968.00
2023-04-18T00:16:38.443Z,966.00
2023-04-18T00:17:38.538Z,953.00
2023-04-18T00:18:38.484Z,958.00
2023-04-18T00:19:38.563Z,960.00
2023-04-18T00:20:38.582Z,959.00
2023-04-18T00:21:38.617Z,961.00
2023-04-18T00:22:38.660Z,952.00
2023-04-18T00:23:38.715Z,950.00
2023-04-18T00:24:38.767Z,946.00
2023-04-18T00:25:38.807Z,938.00
2023-04-18T00:26:38.828Z,949.00
2023-04-18T00:27:38.878Z,937.00
2023-04-18T00:28:38.948Z,942.00
2023-04-18T00:29:38.987Z,944.00
2023-04-18T00:30:39.041Z,935.00
2023-04-18T00:31:39.027Z,947.00
2023-04-18T00:32:39.127Z,937.00
2023-04-18T00:33:39.128Z,933.00
2023-04-18T00:34:39.160Z,946.00
2023-04-18T00:35:39.229Z,934.00
2023-04-18T00:36:39.393Z,939.00
2023-04-18T00:37:39.327Z,938.00
2023-04-18T00:38:39.385Z,926.00
2023-04-18T00:39:39.436Z,923.00
2023-04-18T00:40:39.474Z,925.00
2023-04-18T00:41:39.491Z,929.00
2023-04-18T00:42:39.556Z,923.00
2023-04-18T00:43:39.623Z,919.00
2023-04-18T00:44:39.643Z,914.00
2023-04-18T00:45:39.673Z,907.00
2023-04-18T00:46:39.739Z,916.00
2023-04-18T00:47:39.736Z,909.00
2023-04-18T00:48:39.784Z,904.00
2023-04-18T00:49:39.824Z,912.00
2023-04-18T00:50:39.862Z,915.00
2023-04-18T00:51:39.932Z,906.00
2023-04-18T00:52:40.125Z,906.00
2023-04-18T00:53:40.053Z,885.00
2023-04-18T00:54:40.137Z,898.00
2023-04-18T00:55:40.209Z,889.00
2023-04-18T00:56:40.253Z,901.00
2023-04-18T00:57:40.305Z,904.00
2023-04-18T00:58:40.362Z,899.00
2023-04-18T00:59:40.418Z,884.00
2023-04-18T01:00:40.478Z,890.00
2023-04-18T01:01:40.541Z,882.00
2023-04-18T01:02:40.614Z,875.00
2023-04-18T01:03:40.767Z,877.00
2023-04-18T01:04:40.663Z,879.00
2023-04-18T01:05:40.623Z,881.00
2023-04-18T01:06:40.690Z,876.00
2023-04-18T01:07:40.720Z,871.00
2023-04-18T01:08:40.711Z,873.00
2023-04-18T01:09:40.766Z,869.00
2023-04-18T01:10:40.777Z,873.00
2023-04-18T01:11:40.813Z,876.00
2023-04-18T01:12:40.849Z,867.00
2023-04-18T01:13:40.880Z,858.00
2023-04-18T01:14:40.925Z,857.00
2023-04-18T01:15:41.036Z,864.00
2023-04-18T01:16:41.060Z,859.00
2023-04-18T01:17:41.159Z,851.00
2023-04-18T01:18:41.174Z,863.00
2023-04-18T01:19:41.223Z,859.00
2023-04-18T01:20:41.280Z,840.00
2023-04-18T01:21:41.311Z,845.00
2023-04-18T01:22:41.354Z,845.00
2023-04-18T01:23:41.418Z,844.00
2023-04-18T01:24:41.470Z,848.00
2023-04-18T01:25:41.521Z,850.00
2023-04-18T01:26:41.584Z,836.00
2023-04-18T01:27:41.639Z,836.00
2023-04-18T01:28:41.692Z,838.00
2023-04-18T01:29:41.759Z,846.00
2023-04-18T01:30:41.849Z,838.00
2023-04-18T01:31:42.002Z,857.00
2023-04-18T01:32:42.033Z,842.00
2023-04-18T01:33:42.011Z,824.00
2023-04-18T01:34:42.076Z,842.00
2023-04-18T01:35:42.110Z,844.00
2023-04-18T01:36:42.122Z,830.00
2023-04-18T01:37:42.150Z,831.00
2023-04-18T01:38:42.169Z,828.00
2023-04-18T01:39:42.200Z,822.00
2023-04-18T01:40:42.238Z,825.00
2023-04-18T01:41:42.271Z,822.00
2023-04-18T01:42:42.306Z,825.00
2023-04-18T01:43:42.332Z,810.00
2023-04-18T01:44:42.354Z,822.00
2023-04-18T01:45:42.392Z,810.00
2023-04-18T01:46:42.527Z,814.00
2023-04-18T01:47:42.529Z,817.00
2023-04-18T01:48:42.551Z,813.00
2023-04-18T01:49:42.584Z,803.00
2023-04-18T01:50:42.618Z,812.00
2023-04-18T01:51:42.665Z,808.00
2023-04-18T01:52:42.743Z,804.00
2023-04-18T01:53:42.756Z,811.00
2023-04-18T01:54:42.820Z,793.00
2023-04-18T01:55:42.870Z,801.00
2023-04-18T01:56:42.933Z,800.00
2023-04-18T01:57:42.974Z,797.00
2023-04-18T01:58:43.025Z,803.00
2023-04-18T01:59:43.071Z,794.00
2023-04-18T02:00:43.141Z,789.00
2023-04-18T02:01:43.247Z,785.00
2023-04-18T02:02:43.437Z,791.00
2023-04-18T02:03:43.554Z,787.00
2023-04-18T02:04:43.396Z,793.00
2023-04-18T02:05:43.427Z,794.00
2023-04-18T02:06:43.468Z,783.00
2023-04-18T02:07:43.495Z,793.00
2023-04-18T02:08:43.525Z,776.00
2023-04-18T02:09:43.618Z,780.00
2023-04-18T02:10:43.644Z,788.00
2023-04-18T02:11:43.697Z,777.00
2023-04-18T02:12:43.755Z,772.00
2023-04-18T02:13:43.829Z,791.00
2023-04-18T02:14:43.892Z,782.00
2023-04-18T02:15:43.979Z,779.00
2023-04-18T02:16:44.084Z,775.00
2023-04-18T02:17:44.181Z,761.00
2023-04-18T02:18:44.160Z,772.00
2023-04-18T02:19:44.194Z,763.00
2023-04-18T02:20:44.232Z,761.00
2023-04-18T02:21:44.270Z,758.00
2023-04-18T02:22:44.335Z,759.00
2023-04-18T02:23:44.390Z,761.00
2023-04-18T02:24:44.436Z,760.00
2023-04-18T02:25:44.476Z,769.00
2023-04-18T02:26:44.523Z,742.00
2023-04-18T02:27:44.569Z,752.00
2023-04-18T02:28:44.688Z,736.00
2023-04-18T02:29:44.663Z,740.00
2023-04-18T02:30:44.742Z,750.00
2023-04-18T02:31:44.782Z,771.00
2023-04-18T02:32:44.818Z,743.00
2023-04-18T02:33:44.835Z,755.00
2023-04-18T02:34:44.876Z,749.00
2023-04-18T02:35:44.919Z,742.00
2023-04-18T02:36:44.961Z,738.00
2023-04-18T02:37:45.001Z,752.00
2023-04-18T02:38:45.025Z,736.00
2023-04-18T02:39:45.067Z,749.00
2023-04-18T02:40:45.108Z,739.00
2023-04-18T02:41:45.178Z,745.00
2023-04-18T02:42:45.224Z,728.00
2023-04-18T02:43:45.275Z,726.00
2023-04-18T02:44:45.304Z,734.00
2023-04-18T02:45:45.344Z,738.00
2023-04-18T02:46:45.364Z,715.00
2023-04-18T02:47:54.434Z,732.00
2023-04-18T02:48:46.374Z,733.00
2023-04-18T02:49:45.379Z,733.00
2023-04-18T02:50:45.376Z,736.00
2023-04-18T02:51:45.381Z,719.00
2023-04-18T02:52:45.453Z,729.00
2023-04-18T02:53:45.397Z,728.00
2023-04-18T02:54:45.403Z,729.00
2023-04-18T02:55:45.420Z,728.00
2023-04-18T02:56:45.425Z,722.00
2023-04-18T02:57:45.443Z,716.00
2023-04-18T02:58:45.431Z,709.00
2023-04-18T02:59:45.448Z,724.00
2023-04-18T03:00:45.469Z,708.00
2023-04-18T03:01:45.695Z,716.00
2023-04-18T03:02:45.622Z,719.00
2023-04-18T03:03:45.618Z,703.00
2023-04-18T03:04:45.707Z,707.00
2023-04-18T03:05:45.717Z,695.00
2023-04-18T03:06:45.783Z,702.00
2023-04-18T03:07:45.825Z,713.00
2023-04-18T03:08:45.884Z,707.00
2023-04-18T03:09:45.943Z,707.00
2023-04-18T03:10:46.001Z,697.00
2023-04-18T03:11:46.073Z,700.00
2023-04-18T03:12:46.142Z,696.00
2023-04-18T03:13:46.213Z,701.00
2023-04-18T03:14:46.250Z,690.00
2023-04-18T03:15:46.345Z,693.00
2023-04-18T03:16:46.433Z,706.00
2023-04-18T03:17:46.433Z,692.00
2023-04-18T03:18:46.482Z,692.00
2023-04-18T03:19:46.579Z,688.00
2023-04-18T03:20:46.572Z,696.00
2023-04-18T03:21:46.641Z,695.00
2023-04-18T03:22:46.676Z,685.00
2023-04-18T03:23:46.718Z,697.00
2023-04-18T03:24:46.784Z,693.00
2023-04-18T03:25:46.848Z,683.00
2023-04-18T03:26:46.928Z,681.00
2023-04-18T03:27:47.007Z,684.00
2023-04-18T03:28:47.076Z,689.00
2023-04-18T03:29:47.152Z,683.00
2023-04-18T03:30:47.234Z,676.00
2023-04-18T03:31:47.361Z,673.00
2023-04-18T03:32:47.407Z,666.00
2023-04-18T03:33:47.460Z,674.00
2023-04-18T03:34:47.531Z,665.00
2023-04-18T03:35:47.607Z,669.00
2023-04-18T03:36:48.321Z,672.00
2023-04-18T03:37:47.748Z,670.00
2023-04-18T03:38:47.855Z,670.00
2023-04-18T03:39:47.887Z,664.00
2023-04-18T03:40:47.962Z,668.00
2023-04-18T03:41:48.031Z,665.00
2023-04-18T03:42:48.125Z,659.00
2023-04-18T03:43:48.174Z,661.00
2023-04-18T03:44:48.254Z,661.00
2023-04-18T03:45:48.380Z,650.00
2023-04-18T03:46:48.393Z,659.00
2023-04-18T03:47:48.556Z,661.00
2023-04-18T03:48:48.525Z,658.00
2023-04-18T03:49:48.590Z,657.00
2023-04-18T03:50:48.672Z,658.00
2023-04-18T03:51:48.735Z,653.00
2023-04-18T03:52:48.805Z,658.00
2023-04-18T03:53:48.842Z,653.00
2023-04-18T03:54:48.902Z,656.00
2023-04-18T03:55:48.956Z,652.00
2023-04-18T03:56:49.005Z,655.00
2023-04-18T03:57:49.071Z,654.00
2023-04-18T03:58:49.112Z,652.00
2023-04-18T03:59:49.195Z,651.00
2023-04-18T04:00:49.235Z,648.00
2023-04-18T04:01:49.354Z,645.00
2023-04-18T04:02:49.443Z,646.00
2023-04-18T04:03:49.624Z,649.00
2023-04-18T04:04:49.590Z,640.00
2023-04-18T04:05:49.605Z,649.00
2023-04-18T04:06:49.681Z,643.00
2023-04-18T04:07:49.748Z,641.00
2023-04-18T04:08:49.821Z,646.00
2023-04-18T04:09:49.887Z,646.00
2023-04-18T04:10:50.890Z,643.00
2023-04-18T04:11:50.026Z,639.00
2023-04-18T04:12:50.077Z,640.00
2023-04-18T04:13:50.149Z,639.00
2023-04-18T04:14:50.366Z,641.00
2023-04-18T04:15:50.302Z,641.00
2023-04-18T04:16:50.401Z,639.00
2023-04-18T04:17:50.503Z,639.00
2023-04-18T04:18:50.502Z,637.00
2023-04-18T04:19:50.574Z,638.00
2023-04-18T04:20:50.637Z,639.00
2023-04-18T04:21:50.722Z,636.00
2023-04-18T04:22:50.795Z,636.00
2023-04-18T04:23:50.845Z,634.00
2023-04-18T04:24:50.916Z,628.00
2023-04-18T04:25:50.971Z,634.00
2023-04-18T04:26:51.052Z,637.00
2023-04-18T04:27:51.129Z,630.00
2023-04-18T04:28:51.212Z,632.00
2023-04-18T04:29:51.281Z,631.00
2023-04-18T04:30:51.362Z,633.00
2023-04-18T04:31:51.461Z,632.00
2023-04-18T04:32:51.572Z,630.00
2023-04-18T04:33:51.573Z,632.00
2023-04-18T04:34:51.632Z,629.00
2023-04-18T04:35:51.711Z,628.00
2023-04-18T04:36:51.770Z,628.00
2023-04-18T04:37:51.839Z,629.00
2023-04-18T04:38:51.922Z,626.00
2023-04-18T04:39:51.982Z,627.00
2023-04-18T04:40:52.064Z,629.00
2023-04-18T04:41:52.146Z,626.00
2023-04-18T04:42:52.199Z,627.00
2023-04-18T04:43:52.280Z,624.00
2023-04-18T04:44:52.365Z,624.00
2023-04-18T04:45:52.451Z,627.00
2023-04-18T04:46:52.490Z,622.00
2023-04-18T04:47:52.613Z,625.00
2023-04-18T04:48:53.397Z,627.00
2023-04-18T04:49:52.705Z,623.00
2023-04-18T04:50:52.790Z,625.00
2023-04-18T04:51:52.844Z,618.00
2023-04-18T04:52:52.925Z,625.00
2023-04-18T04:53:52.987Z,624.00
2023-04-18T04:54:53.066Z,620.00
2023-04-18T04:55:53.144Z,619.00
2023-04-18T04:56:53.214Z,620.00
2023-04-18T04:57:53.288Z,622.00
2023-04-18T04:58:53.349Z,616.00
2023-04-18T04:59:53.443Z,626.00
2023-04-18T05:00:53.547Z,620.00
2023-04-18T05:01:53.651Z,617.00
2023-04-18T05:02:53.805Z,621.00
2023-04-18T05:03:53.892Z,615.00
2023-04-18T05:04:53.801Z,618.00
2023-04-18T05:05:53.882Z,620.00
2023-04-18T05:06:53.952Z,616.00
2023-04-18T05:07:54.029Z,619.00
2023-04-18T05:08:54.204Z,612.00
2023-04-18T05:09:54.173Z,611.00
2023-04-18T05:10:54.252Z,612.00
2023-04-18T05:11:54.319Z,617.00
2023-04-18T05:12:54.425Z,617.00
2023-04-18T05:13:54.482Z,615.00
2023-04-18T05:14:54.548Z,610.00
2023-04-18T05:15:54.627Z,618.00
2023-04-18T05:16:54.711Z,625.00
2023-04-18T05:17:54.898Z,625.00
2023-04-18T05:18:54.859Z,628.00
2023-04-18T05:19:54.934Z,636.00
2023-04-18T05:20:55.025Z,636.00
2023-04-18T05:21:55.063Z,644.00
2023-04-18T05:22:55.131Z,651.00
2023-04-18T05:23:55.197Z,654.00
2023-04-18T05:24:55.243Z,658.00
2023-04-18T05:25:55.300Z,671.00
2023-04-18T05:26:55.892Z,688.00
2023-04-18T05:27:55.408Z,724.00
2023-04-18T05:28:55.460Z,740.00
2023-04-18T05:29:55.521Z,751.00
2023-04-18T05:30:55.625Z,772.00
2023-04-18T05:31:55.665Z,789.00
2023-04-18T05:32:55.758Z,800.00
2023-04-18T05:33:56.398Z,795.00
2023-04-18T05:34:55.829Z,793.00
2023-04-18T05:35:55.900Z,813.00
2023-04-18T05:36:55.959Z,802.00
2023-04-18T05:37:56.011Z,688.00
2023-04-18T05:38:56.078Z,640.00
2023-04-18T05:39:56.614Z,624.00
2023-04-18T05:40:56.249Z,623.00
2023-04-18T05:41:56.269Z,650.00
2023-04-18T05:42:56.348Z,681.00
2023-04-18T05:44:04.873Z,699.00
2023-04-18T05:44:57.411Z,700.00
2023-04-18T05:45:57.746Z,705.00
2023-04-18T05:46:56.431Z,714.00
2023-04-18T05:47:56.495Z,730.00
2023-04-18T05:48:56.421Z,743.00
2023-04-18T05:49:56.421Z,742.00
2023-04-18T05:50:56.436Z,749.00
2023-04-18T05:51:56.445Z,746.00
2023-04-18T05:52:56.468Z,735.00
2023-04-18T05:53:56.535Z,737.00
2023-04-18T05:54:56.596Z,731.00
2023-04-18T05:55:56.666Z,723.00
2023-04-18T05:56:56.737Z,729.00
2023-04-18T05:57:56.814Z,729.00
2023-04-18T05:58:56.866Z,725.00
2023-04-18T05:59:56.935Z,657.00
2023-04-18T06:00:57.025Z,599.00
2023-04-18T06:01:57.122Z,568.00
2023-04-18T06:02:57.983Z,550.00
2023-04-18T06:03:57.453Z,561.00
2023-04-18T06:04:57.392Z,608.00
2023-04-18T06:05:57.534Z,629.00
2023-04-18T06:06:57.441Z,647.00
2023-04-18T06:07:57.508Z,662.00
2023-04-18T06:08:57.576Z,665.00
2023-04-18T06:09:57.654Z,680.00
2023-04-18T06:10:57.713Z,683.00
2023-04-18T06:11:57.796Z,664.00
2023-04-18T06:12:57.854Z,669.00
2023-04-18T06:13:57.910Z,665.00
2023-04-18T06:14:57.973Z,666.00
2023-04-18T06:15:58.113Z,668.00
2023-04-18T06:16:58.113Z,663.00
2023-04-18T06:17:58.235Z,669.00
2023-04-18T06:19:00.952Z,661.00
2023-04-18T06:19:58.269Z,668.00
2023-04-18T06:20:58.265Z,663.00
2023-04-18T06:21:58.307Z,675.00
2023-04-18T06:22:58.895Z,675.00
2023-04-18T06:23:59.433Z,677.00
2023-04-18T06:24:59.389Z,684.00
2023-04-18T06:25:58.526Z,688.00
2023-04-18T06:26:59.400Z,705.00
2023-04-18T06:27:58.616Z,745.00
2023-04-18T06:28:58.750Z,741.00
2023-04-18T06:29:58.800Z,737.00
2023-04-18T06:30:58.824Z,760.00
2023-04-18T06:31:58.938Z,776.00
2023-04-18T06:32:59.026Z,797.00
2023-04-18T06:33:59.024Z,827.00
2023-04-18T06:34:59.073Z,818.00
2023-04-18T06:35:59.144Z,845.00
2023-04-18T06:36:59.178Z,844.00
2023-04-18T06:37:59.314Z,868.00
2023-04-18T06:38:59.305Z,865.00
2023-04-18T06:39:59.373Z,847.00
2023-04-18T06:40:59.421Z,836.00
2023-04-18T06:41:59.472Z,856.00
2023-04-18T06:42:59.540Z,847.00
2023-04-18T06:44:04.058Z,850.00
2023-04-18T06:45:00.695Z,851.00
2023-04-18T06:45:59.646Z,852.00
2023-04-18T06:46:59.607Z,853.00
2023-04-18T06:47:59.664Z,865.00
2023-04-18T06:48:59.625Z,860.00
2023-04-18T06:49:59.642Z,865.00
2023-04-18T06:50:59.634Z,869.00
2023-04-18T06:51:59.647Z,870.00
2023-04-18T06:52:59.641Z,873.00
2023-04-18T06:53:59.693Z,871.00
2023-04-18T06:54:59.742Z,879.00
2023-04-18T06:55:59.797Z,867.00
2023-04-18T06:56:59.858Z,883.00
2023-04-18T06:57:59.920Z,879.00
2023-04-18T06:58:59.999Z,878.00
2023-04-18T07:00:00.068Z,866.00
2023-04-18T07:01:00.185Z,889.00
2023-04-18T07:02:00.250Z,876.00
2023-04-18T07:03:00.426Z,877.00
2023-04-18T07:04:00.485Z,879.00
2023-04-18T07:05:00.395Z,862.00
2023-04-18T07:06:00.473Z,865.00
2023-04-18T07:07:00.526Z,873.00
2023-04-18T07:08:00.595Z,876.00
2023-04-18T07:09:00.663Z,873.00
2023-04-18T07:10:00.733Z,855.00
2023-04-18T07:11:00.793Z,865.00
2023-04-18T07:12:00.877Z,878.00
2023-04-18T07:13:00.931Z,874.00
2023-04-18T07:14:01.017Z,869.00
2023-04-18T07:15:01.895Z,871.00
2023-04-18T07:16:01.155Z,882.00
2023-04-18T07:17:02.899Z,900.00
2023-04-18T07:18:02.695Z,877.00
2023-04-18T07:19:01.455Z,896.00
2023-04-18T07:20:01.421Z,889.00
2023-04-18T07:21:01.893Z,940.00
2023-04-18T07:22:01.419Z,963.00
2023-04-18T07:23:01.495Z,987.00
2023-04-18T07:24:02.311Z,1012.00
2023-04-18T07:25:02.439Z,1042.00
2023-04-18T07:26:01.608Z,1075.00
2023-04-18T07:27:02.456Z,1009.00
2023-04-18T07:28:04.508Z,925.00
2023-04-18T07:29:01.776Z,786.00
2023-04-18T07:30:02.750Z,695.00
2023-04-18T07:31:02.336Z,613.00
2023-04-18T07:32:01.764Z,569.00
2023-04-18T07:33:03.407Z,567.00
2023-04-18T07:34:01.739Z,582.00
2023-04-18T07:35:01.755Z,610.00
2023-04-18T07:36:01.768Z,632.00
2023-04-18T07:37:01.747Z,649.00
2023-04-18T07:38:01.758Z,657.00
2023-04-18T07:39:01.766Z,681.00
2023-04-18T07:40:01.797Z,724.00
2023-04-18T07:41:01.890Z,743.00
2023-04-18T07:42:01.902Z,778.00
2023-04-18T07:43:01.965Z,795.00
2023-04-18T07:44:02.075Z,824.00
2023-04-18T07:45:02.177Z,847.00
2023-04-18T07:46:02.203Z,849.00
2023-04-18T07:47:03.001Z,863.00
2023-04-18T07:48:02.354Z,860.00
2023-04-18T07:49:02.368Z,881.00
2023-04-18T07:50:02.940Z,882.00
2023-04-18T07:51:03.360Z,883.00
2023-04-18T07:52:02.362Z,895.00
2023-04-18T07:53:02.395Z,897.00
2023-04-18T07:54:02.384Z,893.00
2023-04-18T07:55:03.401Z,882.00
2023-04-18T07:56:02.375Z,886.00
2023-04-18T07:57:03.324Z,895.00
2023-04-18T07:58:02.373Z,899.00
2023-04-18T07:59:02.891Z,918.00
2023-04-18T08:00:04.189Z,919.00
2023-04-18T08:01:02.922Z,914.00
2023-04-18T08:02:02.437Z,912.00
2023-04-18T08:03:02.540Z,905.00
2023-04-18T08:04:02.622Z,915.00
2023-04-18T08:05:02.900Z,915.00
2023-04-18T08:06:02.476Z,918.00
2023-04-18T08:07:02.434Z,919.00
2023-04-18T08:08:06.362Z,929.00
2023-04-18T08:09:02.422Z,916.00
2023-04-18T08:10:02.427Z,918.00
2023-04-18T08:11:02.441Z,926.00
2023-04-18T08:12:02.417Z,940.00
2023-04-18T08:13:02.897Z,950.00
2023-04-18T08:14:02.442Z,964.00
2023-04-18T08:15:02.440Z,976.00
2023-04-18T08:16:02.506Z,979.00
2023-04-18T08:17:04.415Z,1039.00
2023-04-18T08:18:02.524Z,1099.00
2023-04-18T08:19:02.459Z,1079.00
2023-04-18T08:20:02.468Z,1093.00
2023-04-18T08:21:02.861Z,1072.00
2023-04-18T08:22:02.476Z,1085.00
2023-04-18T08:23:08.581Z,1080.00
2023-04-18T08:24:02.479Z,1070.00
2023-04-18T08:25:05.386Z,1022.00
2023-04-18T08:26:02.486Z,921.00
2023-04-18T08:27:03.398Z,896.00
2023-04-18T08:28:04.531Z,899.00
2023-04-18T08:29:02.564Z,930.00
2023-04-18T08:30:02.500Z,900.00
2023-04-18T08:31:04.413Z,901.00
2023-04-18T08:32:02.593Z,902.00
2023-04-18T08:33:02.558Z,905.00
2023-04-18T08:34:04.499Z,911.00
2023-04-18T08:35:02.818Z,903.00
2023-04-18T08:36:02.830Z,911.00
2023-04-18T08:37:02.873Z,923.00
2023-04-18T08:38:02.931Z,937.00
2023-04-18T08:39:02.940Z,966.00
2023-04-18T08:40:02.951Z,945.00
2023-04-18T08:41:03.030Z,959.00
2023-04-18T08:42:03.049Z,944.00
2023-04-18T08:43:06.419Z,951.00
2023-04-18T08:44:03.069Z,960.00
2023-04-18T08:45:03.062Z,947.00
2023-04-18T08:46:03.063Z,935.00
2023-04-18T08:47:04.913Z,940.00
2023-04-18T08:48:03.191Z,956.00
2023-04-18T08:49:03.054Z,946.00
2023-04-18T08:50:03.063Z,932.00
2023-04-18T08:51:03.069Z,932.00
2023-04-18T08:52:03.076Z,945.00
2023-04-18T08:53:03.999Z,938.00
2023-04-18T08:54:03.064Z,923.00
2023-04-18T08:55:03.079Z,919.00
2023-04-18T08:56:05.971Z,910.00
2023-04-18T08:57:05.968Z,924.00
2023-04-18T08:58:03.116Z,924.00
2023-04-18T08:59:03.120Z,898.00
2023-04-18T09:00:03.091Z,882.00
2023-04-18T09:01:03.266Z,875.00
2023-04-18T09:02:03.163Z,855.00
2023-04-18T09:03:03.298Z,846.00
2023-04-18T09:04:03.193Z,818.00
2023-04-18T09:05:09.111Z,811.00
2023-04-18T09:06:03.176Z,827.00
2023-04-18T09:07:03.109Z,818.00
2023-04-18T09:08:05.887Z,781.00
2023-04-18T09:09:03.264Z,790.00
2023-04-18T09:10:03.122Z,793.00
2023-04-18T09:11:03.139Z,795.00
2023-04-18T09:12:03.194Z,785.00
2023-04-18T09:13:03.407Z,774.00
2023-04-18T09:14:03.909Z,771.00
2023-04-18T09:15:03.400Z,785.00
2023-04-18T09:16:03.155Z,772.00
2023-04-18T09:17:03.197Z,773.00
2023-04-18T09:18:03.471Z,780.00
2023-04-18T09:19:04.225Z,780.00
2023-04-18T09:20:03.194Z,774.00
2023-04-18T09:21:03.899Z,780.00
2023-04-18T09:22:03.850Z,791.00
2023-04-18T09:23:03.893Z,802.00
2023-04-18T09:24:03.223Z,760.00
2023-04-18T09:25:03.359Z,793.00
2023-04-18T09:26:03.263Z,781.00
2023-04-18T09:27:03.284Z,808.00
2023-04-18T09:28:03.265Z,836.00
2023-04-18T09:29:03.305Z,858.00
2023-04-18T09:30:03.341Z,843.00
2023-04-18T09:31:03.336Z,847.00
2023-04-18T09:32:03.315Z,832.00
2023-04-18T09:33:03.311Z,828.00
2023-04-18T09:34:03.353Z,834.00
2023-04-18T09:35:04.571Z,829.00
2023-04-18T09:36:03.492Z,617.00
2023-04-18T09:37:03.593Z,401.00
2023-04-18T09:38:03.562Z,400.00
2023-04-18T09:39:03.563Z,400.00
2023-04-18T09:40:03.559Z,400.00
2023-04-18T09:41:03.688Z,400.00
2023-04-18T09:42:03.567Z,400.00
2023-04-18T09:43:03.564Z,400.00
2023-04-18T09:44:03.586Z,400.00
2023-04-18T09:45:03.620Z,400.00
2023-04-18T09:46:07.420Z,400.00
2023-04-18T09:47:03.610Z,400.00
2023-04-18T09:48:03.731Z,400.00
2023-04-18T09:49:03.642Z,400.00
2023-04-18T09:50:03.961Z,400.00
2023-04-18T09:51:04.420Z,400.00
2023-04-18T09:52:03.658Z,400.00
2023-04-18T09:53:03.659Z,400.00
2023-04-18T09:54:03.662Z,400.00
2023-04-18T09:55:03.682Z,400.00
2023-04-18T09:56:04.690Z,400.00
2023-04-18T09:57:03.874Z,400.00
2023-04-18T09:58:03.820Z,400.00
2023-04-18T09:59:03.672Z,400.00
2023-04-18T10:00:03.694Z,400.00
2023-04-18T10:01:03.760Z,424.00
2023-04-18T10:02:04.496Z,499.00
2023-04-18T10:03:03.744Z,529.00
2023-04-18T10:04:03.766Z,567.00
2023-04-18T10:05:03.808Z,584.00
2023-04-18T10:06:04.454Z,584.00
2023-04-18T10:07:03.895Z,585.00
2023-04-18T10:08:03.955Z,593.00
2023-04-18T10:09:04.012Z,614.00
2023-04-18T10:10:04.097Z,648.00
2023-04-18T10:11:04.079Z,588.00
2023-04-18T10:12:04.088Z,601.00
2023-04-18T10:13:04.162Z,625.00
2023-04-18T10:14:04.854Z,674.00
2023-04-18T10:15:04.147Z,843.00
2023-04-18T10:16:04.145Z,910.00
2023-04-18T10:17:04.912Z,1013.00
2023-04-18T10:18:06.533Z,1029.00
2023-04-18T10:19:04.157Z,1109.00
2023-04-18T10:20:04.190Z,1156.00
2023-04-18T10:21:04.294Z,1217.00
2023-04-18T10:22:04.329Z,1227.00
2023-04-18T10:23:04.394Z,1260.00
2023-04-18T10:24:05.387Z,1262.00
2023-04-18T10:25:04.494Z,1273.00
2023-04-18T10:26:06.462Z,1306.00
2023-04-18T10:27:04.400Z,1353.00
2023-04-18T10:28:04.416Z,1470.00
2023-04-18T10:29:04.415Z,1505.00
2023-04-18T10:30:04.421Z,1530.00
2023-04-18T10:31:04.966Z,1553.00
2023-04-18T10:32:04.445Z,1575.00
2023-04-18T10:34:05.905Z,1616.00
2023-04-18T10:35:05.593Z,1617.00
2023-04-18T10:36:04.579Z,1620.00
2023-04-18T10:37:04.585Z,1630.00
2023-04-18T10:38:04.589Z,1656.00
2023-04-18T10:39:04.590Z,1687.00
2023-04-18T10:40:04.577Z,1711.00
2023-04-18T10:41:04.579Z,1751.00
2023-04-18T10:42:04.593Z,1782.00
2023-04-18T10:43:04.624Z,1791.00
2023-04-18T10:44:05.364Z,1799.00
2023-04-18T10:45:04.769Z,1785.00
2023-04-18T10:46:04.855Z,1818.00
2023-04-18T10:47:04.947Z,1806.00
2023-04-18T10:48:05.037Z,1804.00
2023-04-18T10:49:05.083Z,1783.00
2023-04-18T10:50:06.804Z,1767.00
2023-04-18T10:51:05.206Z,1788.00
2023-04-18T10:52:05.264Z,1755.00
2023-04-18T10:53:05.332Z,1771.00
2023-04-18T10:54:05.370Z,1781.00
2023-04-18T10:55:05.462Z,1791.00
2023-04-18T10:56:05.490Z,1795.00
2023-04-18T10:57:05.549Z,1809.00
2023-04-18T10:58:05.609Z,1809.00
2023-04-18T10:59:05.631Z,1802.00
2023-04-18T11:00:05.651Z,1769.00
2023-04-18T11:01:06.022Z,1768.00
2023-04-18T11:02:05.794Z,1745.00
2023-04-18T11:03:05.977Z,1746.00
2023-04-18T11:04:06.005Z,1728.00
2023-04-18T11:05:05.848Z,1756.00
2023-04-18T11:06:05.958Z,1793.00
2023-04-18T11:07:05.925Z,1816.00
2023-04-18T11:08:05.903Z,1841.00
2023-04-18T11:09:05.908Z,1857.00
2023-04-18T11:10:05.911Z,1848.00
2023-04-18T11:11:05.944Z,1866.00
2023-04-18T11:12:05.997Z,1887.00
2023-04-18T11:13:06.088Z,1906.00
2023-04-18T11:14:06.133Z,1925.00
2023-04-18T11:15:06.195Z,1937.00
2023-04-18T11:16:06.298Z,1949.00
2023-04-18T11:17:06.336Z,1945.00
2023-04-18T11:18:06.445Z,1949.00
2023-04-18T11:19:06.480Z,1945.00
2023-04-18T11:20:06.559Z,1933.00
2023-04-18T11:21:06.627Z,1950.00
2023-04-18T11:22:06.675Z,1971.00
2023-04-18T11:23:06.773Z,1992.00
2023-04-18T11:24:06.816Z,2044.00
2023-04-18T11:25:06.860Z,2118.00
2023-04-18T11:26:06.950Z,2142.00
2023-04-18T11:27:06.990Z,2185.00
2023-04-18T11:28:07.045Z,2242.00
2023-04-18T11:29:07.127Z,2281.00
2023-04-18T11:30:07.152Z,2283.00
2023-04-18T11:31:07.213Z,2303.00
2023-04-18T11:32:07.347Z,2284.00
2023-04-18T11:33:07.726Z,2266.00
2023-04-18T11:34:07.443Z,2277.00
2023-04-18T11:35:07.488Z,2271.00
2023-04-18T11:36:07.513Z,2315.00
2023-04-18T11:37:07.591Z,2304.00
2023-04-18T11:38:07.650Z,2385.00
2023-04-18T11:39:07.680Z,2380.00
2023-04-18T11:40:07.725Z,2404.00
2023-04-18T11:41:07.842Z,2372.00
2023-04-18T11:42:07.856Z,2299.00
2023-04-18T11:43:07.921Z,2288.00
2023-04-18T11:44:07.998Z,2245.00
2023-04-18T11:45:08.046Z,2228.00
2023-04-18T11:46:08.159Z,2209.00
2023-04-18T11:47:08.185Z,2193.00
2023-04-18T11:48:08.287Z,2179.00
2023-04-18T11:49:08.467Z,2164.00
2023-04-18T11:50:08.376Z,2196.00
2023-04-18T11:51:08.441Z,2175.00
2023-04-18T11:52:08.520Z,2172.00
2023-04-18T11:53:08.612Z,2169.00
2023-04-18T11:54:08.631Z,2171.00
2023-04-18T11:55:08.696Z,2132.00
2023-04-18T11:56:08.769Z,2125.00
2023-04-18T11:57:08.833Z,2123.00
2023-04-18T11:58:08.902Z,2114.00
2023-04-18T11:59:08.994Z,2119.00
2023-04-18T12:00:09.033Z,2125.00
2023-04-18T12:01:09.091Z,2129.00
2023-04-18T12:02:16.025Z,2106.00
2023-04-18T12:03:13.342Z,2107.00
2023-04-18T12:04:09.386Z,2108.00
2023-04-18T12:05:09.610Z,2111.00
2023-04-18T12:06:09.313Z,2113.00
2023-04-18T12:07:09.162Z,2114.00
2023-04-18T12:08:09.177Z,2112.00
2023-04-18T12:09:09.165Z,2116.00
2023-04-18T12:10:09.159Z,2128.00
2023-04-18T12:11:09.167Z,2114.00
2023-04-18T12:12:09.166Z,2106.00
2023-04-18T12:13:09.183Z,2121.00
2023-04-18T12:14:09.175Z,2113.00
2023-04-18T12:15:09.249Z,2112.00
2023-04-18T12:16:09.342Z,2121.00
2023-04-18T12:17:09.328Z,2110.00
2023-04-18T12:18:09.446Z,2119.00
2023-04-18T12:19:09.471Z,2115.00
2023-04-18T12:20:09.529Z,2120.00
2023-04-18T12:21:09.698Z,2117.00
2023-04-18T12:22:09.648Z,2128.00
2023-04-18T12:23:09.698Z,2113.00
2023-04-18T12:24:09.783Z,2127.00
2023-04-18T12:25:09.835Z,2123.00
2023-04-18T12:26:09.911Z,2128.00